Time;durP1;ratioP1;P1;durP2;ratioP2;P2;SDS_P1;SDS_P2;PMS_P1;PMS_P2;Temp;Humidity;BMP_temperature;BMP_pressure;BME280_temperature;BME280_humidity;BME280_pressure;Samples;Min_cycle;Max_cycle;Signal;HPM_P1;HPM_P2
2023/10/17 00:01:51;;;;;;;;;;;;;;;10.49;59.02;100924.97;6132155;23;6775;-78
2023/10/17 00:06:46;;;;;;;;;;;;;;;10.53;59.43;100939.75;6156408;23;6815;-78
2023/10/17 00:09:29;;;;;;;;;;;;;;;10.54;59.16;100926.13;6146864;23;6774;-78
2023/10/17 00:14:27;;;;;;;;;;;;;;;10.56;59.29;100901.47;6146909;23;6909;-79
2023/10/17 00:16:57;;;;;;;;;;;;;;;10.57;59.05;100903.22;6144970;23;6964;-79
2023/10/17 00:19:28;;;;;;;;;;;;;;;10.56;59.16;100904.03;6146653;23;6828;-77
2023/10/17 00:21:54;;;;;;;;;;;;;;;10.58;59.49;100914.38;6146842;23;6996;-78
2023/10/17 00:24:20;;;;;;;;;;;;;;;10.59;59.08;100927.25;6171302;23;6957;-78
2023/10/17 00:26:49;;;;;;;;;;;;;;;10.61;59.80;100925.66;6121963;23;6956;-78
2023/10/17 00:29:15;;;;;;;;;;;;;;;10.62;59.64;100927.44;6146956;23;6778;-79
2023/10/17 00:31:43;;;;;;;;;;;;;;;10.63;59.55;100921.53;6145447;23;7825;-76
2023/10/17 00:34:21;;;;;;;;;;;;;;;10.64;59.63;100923.28;6122839;23;6963;-78
2023/10/17 00:36:49;;;;;;;;;;;;;;;10.64;59.49;100913.03;6145891;23;6962;-77
2023/10/17 00:39:32;;;;;;;;;;;;;;;10.66;59.59;100914.00;6147531;23;6779;-79
2023/10/17 00:44:30;;;;;;;;;;;;;;;10.68;59.67;100912.38;6146750;23;6833;-79
2023/10/17 00:46:58;;;;;;;;;;;;;;;10.71;59.66;100906.56;6145162;23;6937;-78
2023/10/17 00:49:26;;;;;;;;;;;;;;;10.70;59.57;100897.97;6121944;23;7170;-76
2023/10/17 00:51:55;;;;;;;;;;;;;;;10.70;59.87;100895.41;6170408;23;6782;-79
2023/10/17 00:54:24;;;;;;;;;;;;;;;10.72;59.83;100894.59;6147518;23;6779;-79
2023/10/17 00:56:56;;;;;;;;;;;;;;;10.72;59.65;100886.91;6146408;23;6969;-75
2023/10/17 00:59:29;;;;;;;;;;;;;;;10.70;59.49;100881.72;6147780;23;7033;-79
2023/10/17 01:02:10;;;;;;;;;;;;;;;10.68;59.55;100868.81;6143748;23;7061;-78
2023/10/17 01:04:44;;;;;;;;;;;;;;;10.68;59.84;100871.38;6171385;23;7175;-71
2023/10/17 01:07:23;;;;;;;;;;;;;;;10.69;59.49;100873.13;6123500;23;7226;-70
2023/10/17 01:10:10;;;;;;;;;;;;;;;10.70;59.82;100872.34;6124367;23;6962;-71
2023/10/17 01:12:44;;;;;;;;;;;;;;;10.70;59.73;100880.03;6145585;23;6970;-71
2023/10/17 01:15:27;;;;;;;;;;;;;;;10.72;59.60;100882.69;6145942;23;6802;-72
2023/10/17 01:18:06;;;;;;;;;;;;;;;10.72;59.69;100868.97;6146160;23;7017;-71
2023/10/17 01:20:34;;;;;;;;;;;;;;;10.71;59.89;100860.41;6147586;23;6961;-72
2023/10/17 01:23:04;;;;;;;;;;;;;;;10.73;59.82;100863.06;6146558;23;7127;-71
2023/10/17 01:25:29;;;;;;;;;;;;;;;10.73;59.70;100858.81;6146616;23;6783;-72
2023/10/17 01:27:58;;;;;;;;;;;;;;;10.74;59.73;100850.31;6145763;23;6984;-73
2023/10/17 01:30:23;;;;;;;;;;;;;;;10.75;60.05;100852.06;6146385;23;6824;-71
2023/10/17 01:32:51;;;;;;;;;;;;;;;10.76;59.70;100852.97;6143694;23;6855;-72
2023/10/17 01:35:20;;;;;;;;;;;;;;;10.78;59.67;100862.53;6144942;23;6969;-71
2023/10/17 01:37:47;;;;;;;;;;;;;;;10.76;59.84;100864.09;6145729;23;6964;-71
2023/10/17 01:40:22;;;;;;;;;;;;;;;10.77;59.83;100859.84;6146337;23;6857;-70
2023/10/17 01:42:51;;;;;;;;;;;;;;;10.76;59.70;100847.84;6144065;23;7227;-70
2023/10/17 01:45:16;;;;;;;;;;;;;;;10.73;59.98;100848.56;6145015;23;7149;-71
2023/10/17 01:47:43;;;;;;;;;;;;;;;10.72;59.85;100858.72;6142474;23;6961;-72
2023/10/17 01:50:10;;;;;;;;;;;;;;;10.70;59.90;100864.63;6143191;23;6853;-71
2023/10/17 01:52:37;;;;;;;;;;;;;;;10.69;59.76;100868.00;6142856;23;6770;-71
2023/10/17 01:55:10;;;;;;;;;;;;;;;10.68;59.82;100870.50;6143051;23;6915;-71
2023/10/17 01:57:40;;;;;;;;;;;;;;;10.70;59.66;100884.28;6145787;23;7241;-73
2023/10/17 02:00:45;;;;;;;;;;;;;;;10.68;59.53;100881.63;6143697;23;6778;-73
2023/10/17 02:03:05;;;;;;;;;;;;;;;10.67;59.92;100873.84;6121152;23;11435;-70
2023/10/17 02:05:32;;;;;;;;;;;;;;;10.66;59.76;100878.09;6147054;23;6904;-71
2023/10/17 02:07:58;;;;;;;;;;;;;;;10.67;60.14;100866.16;6144939;23;6786;-74
2023/10/17 02:10:25;;;;;;;;;;;;;;;10.66;59.86;100869.50;6146624;23;7699;-71
2023/10/17 02:12:52;;;;;;;;;;;;;;;10.65;59.58;100857.50;6116016;23;7119;-73
2023/10/17 02:15:23;;;;;;;;;;;;;;;10.66;59.67;100851.56;6114889;23;7143;-71
2023/10/17 02:17:53;;;;;;;;;;;;;;;10.66;59.56;100847.34;6114391;23;7218;-71
2023/10/17 02:23:02;;;;;;;;;;;;;;;10.66;59.96;100837.09;6124303;23;6908;-73
2023/10/17 02:25:34;;;;;;;;;;;;;;;10.67;60.22;100843.97;6114770;23;6974;-71
2023/10/17 02:28:01;;;;;;;;;;;;;;;10.69;59.85;100842.38;6114279;23;6782;-71
2023/10/17 02:30:27;;;;;;;;;;;;;;;10.73;59.81;100840.84;6087519;23;6965;-72
2023/10/17 02:32:56;;;;;;;;;;;;;;;10.74;59.71;100841.75;6090714;23;7125;-72
2023/10/17 02:38:05;;;;;;;;;;;;;;;10.76;59.95;100843.56;6125326;23;6828;-71
2023/10/17 02:40:40;;;;;;;;;;;;;;;10.78;60.15;100833.41;6092393;23;7282;-72
2023/10/17 02:43:05;;;;;;;;;;;;;;;10.78;59.72;100823.16;6116642;23;6924;-76
2023/10/17 02:45:31;;;;;;;;;;;;;;;10.79;60.14;100819.78;6113913;23;6784;-79
2023/10/17 02:48:06;;;;;;;;;;;;;;;10.81;59.92;100816.53;6114336;23;6976;-74
2023/10/17 02:52:58;;;;;;;;;;;;;;;10.81;59.42;100806.25;6125541;23;6743;-76
2023/10/17 02:55:24;;;;;;;;;;;;;;;10.80;59.29;100798.47;6114119;23;6851;-79
2023/10/17 02:57:54;;;;;;;;;;;;;;;10.81;59.68;100805.38;6115945;23;6763;-75
2023/10/17 03:00:33;;;;;;;;;;;;;;;10.81;59.46;100807.94;6091484;23;7228;-77
2023/10/17 03:02:59;;;;;;;;;;;;;;;10.81;59.52;100805.38;6114639;23;6855;-78
2023/10/17 03:05:27;;;;;;;;;;;;;;;10.80;59.13;100808.72;6092357;23;6967;-77
2023/10/17 03:07:53;;;;;;;;;;;;;;;10.79;59.55;100807.88;6115356;23;6989;-78
2023/10/17 03:10:40;;;;;;;;;;;;;;;10.79;59.53;100809.53;6114019;23;6866;-78
2023/10/17 03:13:53;;;;;;;;;;;;;;;10.76;59.66;100817.06;6124375;23;6775;-77
2023/10/17 03:15:56;;;;;;;;;;;;;;;10.77;59.28;100816.28;6123309;23;6921;-76
2023/10/17 03:18:22;;;;;;;;;;;;;;;10.77;59.39;100809.47;6118682;23;6823;-78
2023/10/17 03:20:51;;;;;;;;;;;;;;;10.79;59.37;100806.97;6145602;23;7061;-78
2023/10/17 03:23:28;;;;;;;;;;;;;;;10.76;59.00;100812.81;6118772;23;6953;-79
2023/10/17 03:26:00;;;;;;;;;;;;;;;10.76;59.37;100812.81;6142820;23;6896;-77
2023/10/17 03:28:33;;;;;;;;;;;;;;;10.78;59.23;100820.59;6097831;23;6994;-77
2023/10/17 03:30:59;;;;;;;;;;;;;;;10.78;59.52;100824.06;6119735;23;7260;-78
2023/10/17 03:33:32;;;;;;;;;;;;;;;10.81;59.14;100820.75;6160788;23;7465;-78
2023/10/17 03:38:30;;;;;;;;;;;;;;;10.83;59.50;100834.56;6126494;23;6814;-78
2023/10/17 03:41:15;;;;;;;;;;;;;;;10.84;59.03;100826.94;6114881;23;6779;-77
2023/10/17 03:43:51;;;;;;;;;;;;;;;10.88;59.29;100825.41;6117743;23;6770;-79
2023/10/17 03:46:18;;;;;;;;;;;;;;;10.90;59.00;100813.56;6140267;23;6971;-78
2023/10/17 03:48:56;;;;;;;;;;;;;;;10.92;58.94;100811.06;6116613;23;6908;-77
2023/10/17 03:51:24;;;;;;;;;;;;;;;10.91;59.05;100807.66;6117992;23;6828;-77
2023/10/17 03:53:53;;;;;;;;;;;;;;;10.91;59.11;100807.66;6140745;23;6959;-77
2023/10/17 03:56:26;;;;;;;;;;;;;;;10.93;59.14;100807.72;6115098;23;6847;-76
2023/10/17 04:01:24;;;;;;;;;;;;;;;10.93;58.78;100816.31;6121474;23;6771;-76
2023/10/17 04:03:54;;;;;;;;;;;;;;;10.95;58.83;100816.34;6116207;23;6774;-77
2023/10/17 04:06:33;;;;;;;;;;;;;;;10.94;58.66;100810.38;6116547;23;6917;-76
2023/10/17 04:11:49;;;;;;;;;;;;;;;10.93;58.74;100821.44;6101081;23;6768;-75
2023/10/17 04:14:17;;;;;;;;;;;;;;;10.92;58.74;100829.94;6087914;23;6779;-76
2023/10/17 04:16:48;;;;;;;;;;;;;;;10.92;58.51;100824.81;6089259;23;6941;-77
2023/10/17 04:19:20;;;;;;;;;;;;;;;10.93;58.56;100815.41;6088516;23;6954;-77
2023/10/17 04:24:35;;;;;;;;;;;;;;;10.90;58.20;100810.13;6098552;23;6988;-77
2023/10/17 04:27:19;;;;;;;;;;;;;;;10.83;58.44;100814.03;6085556;23;6795;-75
2023/10/17 04:29:56;;;;;;;;;;;;;;;10.82;58.82;100819.97;6088056;23;7420;-76
2023/10/17 04:32:26;;;;;;;;;;;;;;;10.81;58.37;100824.22;6087920;23;6863;-77
2023/10/17 04:34:52;;;;;;;;;;;;;;;10.80;58.76;100819.00;6089292;23;6828;-77
2023/10/17 04:37:24;;;;;;;;;;;;;;;10.80;58.53;100825.00;6090262;23;7260;-77
2023/10/17 04:39:58;;;;;;;;;;;;;;;10.79;58.77;100822.34;6088310;23;6986;-77
2023/10/17 04:45:13;;;;;;;;;;;;;;;10.73;58.56;100814.34;6088184;23;6767;-77
2023/10/17 04:47:43;;;;;;;;;;;;;;;10.74;58.61;100813.56;6088203;23;8405;-77
2023/10/17 04:50:12;;;;;;;;;;;;;;;10.73;58.96;100807.53;6087715;23;6949;-77
2023/10/17 04:52:41;;;;;;;;;;;;;;;10.74;58.45;100798.16;6088381;23;6823;-77
2023/10/17 04:55:40;;;;;;;;;;;;;;;10.74;59.03;100793.03;6087592;23;6775;-77
2023/10/17 04:57:59;;;;;;;;;;;;;;;10.74;58.95;100793.03;6109098;23;7553;-75
2023/10/17 05:06:00;;;;;;;;;;;;;;;10.75;58.92;100805.06;6125834;23;6770;-77
2023/10/17 05:08:32;;;;;;;;;;;;;;;10.76;58.83;100812.81;6125252;23;6762;-75
2023/10/17 06:17:03;;;;;;;;;;;;;;;10.76;59.33;100811.94;6117854;23;6965;-72
2023/10/17 06:19:32;;;;;;;;;;;;;;;10.79;58.80;100807.88;6116878;23;7199;-71
2023/10/17 06:26:59;;;;;;;;;;;;;;;10.90;58.52;100831.50;6112976;23;6767;-73
2023/10/17 06:31:57;;;;;;;;;;;;;;;10.95;58.68;100824.94;6113140;23;7072;-73
2023/10/17 06:34:24;;;;;;;;;;;;;;;10.98;58.64;100821.69;6088837;23;6843;-72
2023/10/17 06:36:59;;;;;;;;;;;;;;;11.00;58.36;100816.59;6110843;23;6943;-71
2023/10/17 06:39:36;;;;;;;;;;;;;;;11.01;58.38;100815.81;6111565;23;7236;-71
2023/10/17 06:42:15;;;;;;;;;;;;;;;11.03;58.37;100816.78;6109353;23;6833;-71
2023/10/17 06:44:53;;;;;;;;;;;;;;;11.03;58.83;100825.34;6111524;23;7206;-72
2023/10/17 06:48:08;;;;;;;;;;;;;;;11.06;58.58;100828.09;6087187;23;6969;-72
2023/10/17 06:52:54;;;;;;;;;;;;;;;11.14;58.67;100828.50;6112604;23;7140;-71
2023/10/17 06:55:42;;;;;;;;;;;;;;;11.23;58.73;100835.78;6088224;23;6775;-71
2023/10/17 06:58:11;;;;;;;;;;;;;;;11.26;58.31;100838.53;6107167;23;6775;-73
2023/10/17 07:00:49;;;;;;;;;;;;;;;11.32;58.38;100835.38;6110354;23;6775;-73
2023/10/17 07:03:16;;;;;;;;;;;;;;;11.36;58.49;100830.50;6086679;23;6959;-72
2023/10/17 07:06:25;;;;;;;;;;;;;;;11.41;58.69;100830.72;6115262;23;7239;-73
2023/10/17 07:08:36;;;;;;;;;;;;;;;11.48;57.96;100829.34;6105695;23;6771;-71
2023/10/17 07:11:26;;;;;;;;;;;;;;;11.52;58.22;100832.16;6116889;23;7229;-71
2023/10/17 07:16:45;;;;;;;;;;;;;;;11.63;57.97;100824.97;6125985;23;6835;-73
2023/10/17 07:24:30;;;;;;;;;;;;;;;11.84;58.19;100815.72;6116058;23;6759;-77
2023/10/17 07:26:56;;;;;;;;;;;;;;;11.93;58.03;100823.88;6140359;23;7045;-77
2023/10/17 07:29:24;;;;;;;;;;;;;;;11.99;57.83;100813.91;6116480;23;6767;-77
2023/10/17 07:31:53;;;;;;;;;;;;;;;12.07;58.04;100809.19;6091421;23;6990;-78
2023/10/17 07:34:23;;;;;;;;;;;;;;;12.16;57.54;100811.28;6116120;23;6770;-78
2023/10/17 07:37:12;;;;;;;;;;;;;;;12.26;57.07;100815.19;6115511;23;6910;-76
2023/10/17 07:39:36;;;;;;;;;;;;;;;12.33;57.48;100809.56;6116553;23;6914;-77
2023/10/17 07:42:03;;;;;;;;;;;;;;;12.41;57.43;100813.38;6140247;23;6963;-78
2023/10/17 07:44:34;;;;;;;;;;;;;;;12.48;57.23;100811.97;6117388;23;7208;-77
2023/10/17 07:49:42;;;;;;;;;;;;;;;12.59;57.09;100804.72;6128085;23;6832;-78
2023/10/17 07:52:12;;;;;;;;;;;;;;;12.65;57.22;100810.16;6118401;23;7917;-77
2023/10/17 07:54:46;;;;;;;;;;;;;;;12.71;56.41;100810.47;6117739;23;6856;-78
2023/10/17 07:57:23;;;;;;;;;;;;;;;12.76;56.25;100805.53;6093837;23;6913;-77
2023/10/17 07:59:51;;;;;;;;;;;;;;;12.81;56.14;100809.16;6116863;23;6969;-78
2023/10/17 08:02:22;;;;;;;;;;;;;;;12.87;56.51;100817.16;6115727;23;7192;-77
2023/10/17 08:04:52;;;;;;;;;;;;;;;12.95;55.78;100814.94;6118807;23;6913;-78
2023/10/17 08:07:21;;;;;;;;;;;;;;;13.01;55.93;100806.59;6117125;23;6779;-77
2023/10/17 08:09:59;;;;;;;;;;;;;;;13.06;56.25;100810.28;6117212;23;6782;-76
2023/10/17 08:12:29;;;;;;;;;;;;;;;13.06;56.08;100793.13;6117751;23;6778;-78
2023/10/17 08:14:58;;;;;;;;;;;;;;;13.09;55.58;100789.81;6118388;23;6779;-73
2023/10/17 08:17:34;;;;;;;;;;;;;;;13.13;55.51;100781.41;6118066;23;6782;-78
2023/10/17 08:20:38;;;;;;;;;;;;;;;13.18;55.14;100785.06;6119034;23;6894;-74
2023/10/17 08:22:55;;;;;;;;;;;;;;;13.22;55.87;100787.78;6118894;23;6775;-77
2023/10/17 08:25:32;;;;;;;;;;;;;;;13.25;55.15;100775.91;6116442;23;6921;-77
2023/10/17 08:27:58;;;;;;;;;;;;;;;13.30;55.07;100782.16;6116363;23;6964;-78
2023/10/17 08:30:25;;;;;;;;;;;;;;;13.34;55.06;100785.75;6141413;23;6953;-77
2023/10/17 08:35:36;;;;;;;;;;;;;;;13.41;54.84;100786.88;6140299;23;6823;-72
2023/10/17 08:38:03;;;;;;;;;;;;;;;13.45;54.38;100794.84;6146534;23;6803;-72
2023/10/17 08:40:29;;;;;;;;;;;;;;;13.52;55.04;100798.53;6147197;23;6779;-73
2023/10/17 08:42:57;;;;;;;;;;;;;;;13.59;53.72;100804.81;6123090;23;7072;-71
2023/10/17 08:45:26;;;;;;;;;;;;;;;13.66;53.63;100808.53;6121861;23;6771;-73
2023/10/17 08:48:00;;;;;;;;;;;;;;;13.68;53.23;100805.22;6121482;23;6960;-71
2023/10/17 08:50:36;;;;;;;;;;;;;;;13.68;53.61;100797.50;6122159;23;6774;-72
2023/10/17 08:53:07;;;;;;;;;;;;;;;13.72;53.72;100812.28;6148091;23;7217;-74
2023/10/17 08:55:33;;;;;;;;;;;;;;;13.74;53.90;100808.06;6146843;23;6790;-71
2023/10/17 08:57:59;;;;;;;;;;;;;;;13.78;52.86;100806.50;6120692;23;6951;-71
2023/10/17 09:00:49;;;;;;;;;;;;;;;13.83;53.61;100801.53;6143709;23;7151;-72
2023/10/17 09:03:36;;;;;;;;;;;;;;;13.89;52.71;100804.34;6116632;23;6858;-72
2023/10/17 09:08:55;;;;;;;;;;;;;;;13.97;52.64;100804.69;6127172;23;6934;-72
2023/10/17 09:11:29;;;;;;;;;;;;;;;13.98;51.92;100804.72;6092232;23;7632;-72
2023/10/17 09:14:17;;;;;;;;;;;;;;;14.01;52.46;100801.38;6092254;23;7025;-71
2023/10/17 09:17:47;;;;;;;;;;;;;;;14.05;52.40;100805.88;6117678;23;6877;-70
2023/10/17 09:19:54;;;;;;;;;;;;;;;14.13;52.54;100803.59;6115037;23;6763;-73
2023/10/17 09:22:23;;;;;;;;;;;;;;;14.25;52.11;100803.19;6117549;23;6767;-72
2023/10/17 09:24:50;;;;;;;;;;;;;;;14.36;51.57;100795.88;6116762;23;6779;-71
2023/10/17 09:27:18;;;;;;;;;;;;;;;14.42;51.38;100783.22;6115373;23;6940;-72
2023/10/17 09:29:55;;;;;;;;;;;;;;;14.47;51.21;100781.69;6116688;23;7178;-73
2023/10/17 09:32:38;;;;;;;;;;;;;;;14.53;51.06;100779.34;6091390;23;7262;-71
2023/10/17 09:35:17;;;;;;;;;;;;;;;14.56;51.03;100784.59;6116696;23;7221;-73
2023/10/17 09:37:50;;;;;;;;;;;;;;;14.57;50.85;100791.53;6113040;23;8082;-72
2023/10/17 09:40:29;;;;;;;;;;;;;;;14.55;50.86;100789.72;6110913;23;6770;-73
2023/10/17 09:42:56;;;;;;;;;;;;;;;14.51;49.99;100791.31;6111388;23;7206;-78
2023/10/17 09:45:22;;;;;;;;;;;;;;;14.50;49.78;100791.25;6113304;23;6770;-77
2023/10/17 09:48:05;;;;;;;;;;;;;;;14.51;49.60;100791.31;6086669;23;6767;-78
2023/10/17 09:50:34;;;;;;;;;;;;;;;14.48;49.71;100780.84;6113349;23;6945;-77
2023/10/17 09:53:16;;;;;;;;;;;;;;;14.50;50.12;100784.41;6089838;23;7122;-75
2023/10/17 09:55:48;;;;;;;;;;;;;;;14.50;50.08;100784.41;6091237;23;6778;-75
2023/10/17 09:58:33;;;;;;;;;;;;;;;14.56;50.67;100788.91;6112420;23;7119;-75
2023/10/17 10:01:21;;;;;;;;;;;;;;;14.98;50.20;100782.72;6089075;23;6974;-76
2023/10/17 10:03:53;;;;;;;;;;;;;;;16.13;49.42;100773.66;6067801;23;7013;-75
2023/10/17 10:06:26;;;;;;;;;;;;;;;17.55;47.51;100773.31;6089247;23;6775;-75
2023/10/17 10:09:17;;;;;;;;;;;;;;;18.85;45.37;100764.13;6065290;23;7273;-76
2023/10/17 10:11:48;;;;;;;;;;;;;;;20.00;44.15;100765.25;6069426;23;6957;-75
2023/10/17 10:14:15;;;;;;;;;;;;;;;20.88;42.35;100757.75;6090314;23;6766;-76
2023/10/17 10:16:57;;;;;;;;;;;;;;;21.65;40.90;100757.63;6065384;23;7005;-75
2023/10/17 10:22:14;;;;;;;;;;;;;;;22.64;37.91;100741.69;6117002;23;6879;-76
2023/10/17 10:24:42;;;;;;;;;;;;;;;23.00;36.68;100742.66;6093619;23;7345;-74
2023/10/17 10:27:10;;;;;;;;;;;;;;;23.38;35.78;100741.00;6120122;23;6844;-75
2023/10/17 10:29:40;;;;;;;;;;;;;;;23.75;35.40;100744.44;6116540;23;7005;-75
2023/10/17 10:32:33;;;;;;;;;;;;;;;24.14;34.46;100740.03;6117929;23;6775;-77
2023/10/17 10:35:01;;;;;;;;;;;;;;;24.32;34.83;100746.09;6146683;23;6815;-76
2023/10/17 10:37:27;;;;;;;;;;;;;;;24.49;33.69;100749.53;6141221;23;7052;-76
2023/10/17 10:40:22;;;;;;;;;;;;;;;24.76;34.03;100747.66;6116239;23;6763;-75
2023/10/17 10:42:50;;;;;;;;;;;;;;;24.99;32.82;100741.41;6117649;23;6779;-76
2023/10/17 10:45:42;;;;;;;;;;;;;;;25.03;32.89;100737.03;6114749;23;7167;-75
2023/10/17 10:48:17;;;;;;;;;;;;;;;25.12;32.38;100739.59;6117004;23;6766;-74
2023/10/17 10:50:45;;;;;;;;;;;;;;;25.22;32.00;100740.41;6116841;23;6946;-76
2023/10/17 10:53:21;;;;;;;;;;;;;;;25.27;31.23;100738.59;6141364;23;7026;-77
2023/10/17 10:56:03;;;;;;;;;;;;;;;25.13;31.63;100732.59;6141078;23;6833;-78
2023/10/17 10:58:34;;;;;;;;;;;;;;;25.18;31.88;100734.31;6116358;23;7316;-78
2023/10/17 11:01:03;;;;;;;;;;;;;;;25.31;31.81;100721.09;6120545;23;6763;-75
2023/10/17 11:03:31;;;;;;;;;;;;;;;25.38;31.20;100714.91;6116784;23;6966;-76
2023/10/17 11:06:02;;;;;;;;;;;;;;;25.36;30.68;100724.56;6118552;23;6952;-78
2023/10/17 11:08:43;;;;;;;;;;;;;;;25.36;30.75;100725.41;6093895;23;6804;-77
2023/10/17 11:11:10;;;;;;;;;;;;;;;25.38;30.06;100720.16;6093958;23;7054;-79
2023/10/17 11:13:44;;;;;;;;;;;;;;;25.27;29.95;100722.88;6117649;23;6967;-78
2023/10/17 11:16:12;;;;;;;;;;;;;;;25.24;30.23;100712.41;6117274;23;6775;-77
2023/10/17 11:18:44;;;;;;;;;;;;;;;25.37;30.30;100716.66;6117319;23;6962;-76
2023/10/17 11:21:16;;;;;;;;;;;;;;;25.73;30.26;100716.34;6117347;23;7632;-80
2023/10/17 11:26:34;;;;;;;;;;;;;;;26.12;29.04;100702.81;6093282;23;6879;-79
2023/10/17 11:29:03;;;;;;;;;;;;;;;26.16;29.34;100694.00;6068748;23;6982;-76
2023/10/17 11:31:31;;;;;;;;;;;;;;;26.22;29.11;100694.84;6077693;23;7636;-76
2023/10/17 11:34:04;;;;;;;;;;;;;;;26.15;29.17;100694.88;6090653;23;6834;-78
2023/10/17 11:36:52;;;;;;;;;;;;;;;26.09;28.99;100687.09;6066907;23;6970;-79
2023/10/17 11:39:24;;;;;;;;;;;;;;;26.16;28.83;100680.00;6091929;23;7040;-79
2023/10/17 11:41:55;;;;;;;;;;;;;;;26.19;28.48;100667.75;6090521;23;6831;-79
2023/10/17 11:44:23;;;;;;;;;;;;;;;26.28;28.96;100673.78;6091317;23;6839;-79
2023/10/17 11:47:02;;;;;;;;;;;;;;;26.36;28.59;100677.16;6089018;23;6970;-80
2023/10/17 11:49:41;;;;;;;;;;;;;;;26.67;28.94;100668.84;6088305;23;6973;-78
2023/10/17 11:52:12;;;;;;;;;;;;;;;26.89;28.16;100666.78;6090239;23;7244;-78
2023/10/17 11:55:23;;;;;;;;;;;;;;;26.88;27.30;100672.06;6091435;23;7840;-76
2023/10/17 11:57:50;;;;;;;;;;;;;;;26.66;26.98;100663.59;6091440;23;6763;-78
2023/10/17 12:02:47;;;;;;;;;;;;;;;26.46;26.69;100656.88;6088710;23;6759;-73
2023/10/17 12:05:20;;;;;;;;;;;;;;;26.06;26.82;100651.25;6090870;23;7256;-72
2023/10/17 12:07:53;;;;;;;;;;;;;;;25.14;27.61;100656.53;6089919;23;6771;-73
2023/10/17 12:10:20;;;;;;;;;;;;;;;23.88;27.83;100658.94;6088567;23;6851;-72
2023/10/17 12:12:47;;;;;;;;;;;;;;;22.59;29.25;100654.63;6089479;23;6855;-72
2023/10/17 12:15:13;;;;;;;;;;;;;;;21.46;31.10;100662.72;6091401;23;6778;-71
2023/10/17 12:17:43;;;;;;;;;;;;;;;20.65;31.67;100667.19;6090172;23;6762;-73
2023/10/17 12:20:11;;;;;;;;;;;;;;;20.04;32.51;100666.47;6092050;23;7159;-72
2023/10/17 12:22:37;;;;;;;;;;;;;;;19.54;33.35;100667.47;6133521;23;6775;-73
2023/10/17 12:25:04;;;;;;;;;;;;;;;19.10;33.89;100665.91;6147196;23;6767;-73
2023/10/17 12:27:30;;;;;;;;;;;;;;;18.68;34.64;100658.22;6122966;23;6969;-73
2023/10/17 12:29:56;;;;;;;;;;;;;;;18.41;35.07;100654.25;6124651;23;6774;-72
2023/10/17 12:32:22;;;;;;;;;;;;;;;18.21;35.45;100663.34;6122639;23;6962;-73
2023/10/17 12:34:49;;;;;;;;;;;;;;;18.04;35.69;100648.28;6124069;23;7007;-71
2023/10/17 12:37:17;;;;;;;;;;;;;;;17.92;35.82;100643.72;6122955;23;6771;-72
2023/10/17 12:39:44;;;;;;;;;;;;;;;17.83;36.27;100635.72;6124249;23;6813;-72
2023/10/17 12:42:11;;;;;;;;;;;;;;;17.80;36.17;100633.94;6123678;23;7202;-70
2023/10/17 12:44:36;;;;;;;;;;;;;;;17.79;36.47;100623.53;6099485;23;6990;-71
2023/10/17 12:47:02;;;;;;;;;;;;;;;17.77;36.37;100628.69;6122655;23;6945;-72
2023/10/17 12:49:28;;;;;;;;;;;;;;;17.75;36.16;100619.97;6098393;23;6940;-73
2023/10/17 12:51:54;;;;;;;;;;;;;;;17.72;36.19;100619.94;6123281;23;7137;-71
2023/10/17 12:54:20;;;;;;;;;;;;;;;17.70;36.25;100612.09;6123368;23;7144;-71
2023/10/17 12:56:46;;;;;;;;;;;;;;;17.66;36.46;100610.31;6123672;23;6759;-72
2023/10/17 12:59:14;;;;;;;;;;;;;;;17.59;36.01;100609.28;6098961;23;6927;-72
2023/10/17 13:01:40;;;;;;;;;;;;;;;17.49;36.10;100607.34;6122539;23;6974;-72
2023/10/17 13:04:07;;;;;;;;;;;;;;;17.38;36.69;100604.50;6123184;23;6842;-71
2023/10/17 13:06:34;;;;;;;;;;;;;;;17.31;37.15;100600.88;6122064;23;6987;-72
2023/10/17 13:09:00;;;;;;;;;;;;;;;17.28;37.29;100598.19;6123317;23;7248;-71
2023/10/17 13:11:27;;;;;;;;;;;;;;;17.27;37.79;100599.03;6121299;23;6771;-71
2023/10/17 13:13:54;;;;;;;;;;;;;;;17.25;37.27;100602.47;6148501;23;6957;-73
2023/10/17 13:16:23;;;;;;;;;;;;;;;17.21;37.41;100596.31;6121950;23;6965;-72
2023/10/17 13:18:50;;;;;;;;;;;;;;;17.18;37.00;100601.41;6124622;23;6988;-72
2023/10/17 13:21:17;;;;;;;;;;;;;;;17.13;37.21;100592.69;6150330;23;6912;-72
2023/10/17 13:26:15;;;;;;;;;;;;;;;17.01;36.87;100594.13;6091558;23;7017;-71
2023/10/17 13:28:41;;;;;;;;;;;;;;;17.00;36.90;100586.28;6094290;23;6955;-73
2023/10/17 13:31:16;;;;;;;;;;;;;;;16.99;37.66;100589.72;6106516;23;6778;-72
2023/10/17 13:33:43;;;;;;;;;;;;;;;16.99;38.03;100587.97;6122463;23;6767;-72
2023/10/17 13:36:16;;;;;;;;;;;;;;;16.97;37.76;100587.06;6123296;23;6894;-72
2023/10/17 13:38:43;;;;;;;;;;;;;;;16.91;37.13;100584.34;6124689;23;6910;-72
2023/10/17 13:41:09;;;;;;;;;;;;;;;16.88;37.31;100586.84;6119741;23;6915;-71
2023/10/17 13:43:39;;;;;;;;;;;;;;;16.89;37.50;100593.78;6149014;23;7177;-71
2023/10/17 13:46:13;;;;;;;;;;;;;;;16.89;37.28;100583.41;6122213;23;6778;-71
2023/10/17 13:48:46;;;;;;;;;;;;;;;16.91;37.54;100576.59;6122077;23;6771;-71
2023/10/17 13:51:12;;;;;;;;;;;;;;;16.93;37.49;100585.25;6149365;23;6839;-71
2023/10/17 13:53:40;;;;;;;;;;;;;;;16.97;37.36;100570.69;6123096;23;6901;-72
2023/10/17 13:56:20;;;;;;;;;;;;;;;17.00;37.35;100566.50;6124055;23;6809;-72
2023/10/17 13:58:47;;;;;;;;;;;;;;;17.01;37.71;100564.75;6124598;23;6954;-72
2023/10/17 14:01:31;;;;;;;;;;;;;;;17.03;37.59;100558.78;6123059;23;6974;-71
2023/10/17 14:04:03;;;;;;;;;;;;;;;17.02;37.54;100554.47;6127258;23;6790;-71
2023/10/17 14:06:38;;;;;;;;;;;;;;;17.06;37.69;100560.59;6124460;23;6925;-71
2023/10/17 14:09:04;;;;;;;;;;;;;;;17.07;37.82;100552.84;6125944;23;6775;-71
2023/10/17 14:11:30;;;;;;;;;;;;;;;17.10;37.62;100558.94;6124276;23;6906;-71
2023/10/17 14:13:56;;;;;;;;;;;;;;;17.12;37.95;100557.25;6121868;23;7252;-72
2023/10/17 14:16:24;;;;;;;;;;;;;;;17.11;37.98;100558.97;6121017;23;6955;-72
2023/10/17 14:21:44;;;;;;;;;;;;;;;17.10;37.71;100553.78;6107815;23;6767;-75
2023/10/17 14:24:10;;;;;;;;;;;;;;;17.09;37.65;100550.28;6123671;23;6775;-76
2023/10/17 14:26:36;;;;;;;;;;;;;;;17.06;37.63;100535.56;6122144;23;6763;-75
2023/10/17 14:29:03;;;;;;;;;;;;;;;17.03;37.42;100530.31;6121741;23;7055;-76
2023/10/17 14:31:32;;;;;;;;;;;;;;;17.01;37.57;100526.81;6096726;23;6954;-75
2023/10/17 14:33:59;;;;;;;;;;;;;;;16.98;37.40;100521.50;6147806;23;6823;-77
2023/10/17 14:36:28;;;;;;;;;;;;;;;16.96;37.40;100524.94;6097252;23;6822;-76
2023/10/17 14:38:59;;;;;;;;;;;;;;;16.92;37.23;100517.06;6123060;23;6771;-76
2023/10/17 14:41:24;;;;;;;;;;;;;;;16.91;37.31;100519.63;6119420;23;7387;-74
2023/10/17 14:43:50;;;;;;;;;;;;;;;16.89;36.89;100516.13;6121818;23;6750;-75
2023/10/17 14:46:22;;;;;;;;;;;;;;;16.88;37.16;100514.38;6121277;23;7030;-75
2023/10/17 14:48:48;;;;;;;;;;;;;;;16.85;37.20;100510.03;6123485;23;7843;-76
2023/10/17 14:51:15;;;;;;;;;;;;;;;16.83;37.53;100500.47;6095481;23;7253;-74
2023/10/17 14:53:43;;;;;;;;;;;;;;;16.80;37.85;100496.97;6095352;23;7089;-74
2023/10/17 14:56:13;;;;;;;;;;;;;;;16.79;37.90;100500.38;6097716;23;8354;-76
2023/10/17 14:58:49;;;;;;;;;;;;;;;16.76;37.71;100495.13;6121920;23;6948;-75
2023/10/17 15:01:16;;;;;;;;;;;;;;;16.71;37.44;100501.91;6096727;23;6783;-76
2023/10/17 15:03:45;;;;;;;;;;;;;;;16.69;37.78;100502.72;6096875;23;6961;-76
2023/10/17 15:06:10;;;;;;;;;;;;;;;16.64;37.51;100494.84;6122956;23;6771;-75
2023/10/17 15:08:36;;;;;;;;;;;;;;;16.61;37.54;100511.16;6097158;23;7064;-76
2023/10/17 15:11:05;;;;;;;;;;;;;;;16.58;37.76;100497.25;6096432;23;6801;-76
2023/10/17 15:13:33;;;;;;;;;;;;;;;16.54;37.71;100500.63;6097266;23;7316;-76
2023/10/17 15:16:02;;;;;;;;;;;;;;;16.50;37.47;100497.94;6121826;23;6863;-76
2023/10/17 15:18:30;;;;;;;;;;;;;;;16.45;37.90;100502.13;6146211;23;7318;-76
2023/10/17 15:21:11;;;;;;;;;;;;;;;16.42;37.86;100498.59;6098231;23;6961;-76
2023/10/17 15:23:40;;;;;;;;;;;;;;;16.37;38.47;100498.47;6098382;23;7189;-75
2023/10/17 15:26:06;;;;;;;;;;;;;;;16.33;38.60;100496.66;6122726;23;7030;-75
2023/10/17 15:28:33;;;;;;;;;;;;;;;16.28;38.53;100496.53;6096475;23;6779;-75
2023/10/17 15:31:08;;;;;;;;;;;;;;;16.24;38.59;100492.09;6101397;23;7231;-75